sensor_id;sensor_type;location;lat;lon;timestamp;pressure;altitude;pressure_sealevel;temperature;humidity
74103;BME280;62853;46.166;3.640;2024-01-16T00:00:31;100839.88;;;3.51;100.00
74103;BME280;62853;46.166;3.640;2024-01-16T00:02:56;100851.19;;;3.50;100.00
74103;BME280;62853;46.166;3.640;2024-01-16T00:05:22;100855.50;;;3.51;100.00
74103;BME280;62853;46.166;3.640;2024-01-16T00:07:47;100844.22;;;3.50;100.00
74103;BME280;62853;46.166;3.640;2024-01-16T00:10:12;100845.09;;;3.51;100.00
74103;BME280;62853;46.166;3.640;2024-01-16T00:12:38;100843.34;;;3.51;100.00
74103;BME280;62853;46.166;3.640;2024-01-16T00:15:06;100839.00;;;3.50;100.00
74103;BME280;62853;46.166;3.640;2024-01-16T00:17:31;100852.03;;;3.50;100.00
74103;BME280;62853;46.166;3.640;2024-01-16T00:19:57;100845.94;;;3.51;100.00
74103;BME280;62853;46.166;3.640;2024-01-16T00:22:26;100847.69;;;3.51;100.00
74103;BME280;62853;46.166;3.640;2024-01-16T00:24:51;100845.09;;;3.51;100.00
74103;BME280;62853;46.166;3.640;2024-01-16T00:27:17;100842.50;;;3.51;100.00
74103;BME280;62853;46.166;3.640;2024-01-16T00:29:42;100855.50;;;3.51;100.00
74103;BME280;62853;46.166;3.640;2024-01-16T00:32:07;100849.44;;;3.50;100.00
74103;BME280;62853;46.166;3.640;2024-01-16T00:34:33;100851.22;;;3.48;100.00
74103;BME280;62853;46.166;3.640;2024-01-16T00:36:59;100862.47;;;3.49;100.00
74103;BME280;62853;46.166;3.640;2024-01-16T00:39:24;100858.16;;;3.49;100.00
74103;BME280;62853;46.166;3.640;2024-01-16T00:41:49;100858.13;;;3.51;100.00
74103;BME280;62853;46.166;3.640;2024-01-16T00:44:15;100850.38;;;3.48;100.00
74103;BME280;62853;46.166;3.640;2024-01-16T00:46:40;100857.28;;;3.49;100.00
74103;BME280;62853;46.166;3.640;2024-01-16T00:49:05;100858.13;;;3.51;100.00
74103;BME280;62853;46.166;3.640;2024-01-16T00:51:32;100852.94;;;3.49;100.00
74103;BME280;62853;46.166;3.640;2024-01-16T00:53:58;100859.03;;;3.48;100.00
74103;BME280;62853;46.166;3.640;2024-01-16T00:56:23;100851.19;;;3.50;100.00
74103;BME280;62853;46.166;3.640;2024-01-16T00:58:49;100859.00;;;3.50;100.00
74103;BME280;62853;46.166;3.640;2024-01-16T01:01:14;100865.97;;;3.49;100.00
74103;BME280;62853;46.166;3.640;2024-01-16T01:03:39;100862.47;;;3.49;100.00
74103;BME280;62853;46.166;3.640;2024-01-16T01:06:05;100867.69;;;3.49;100.00
74103;BME280;62853;46.166;3.640;2024-01-16T01:08:30;100859.88;;;3.49;100.00
74103;BME280;62853;46.166;3.640;2024-01-16T01:10:56;100860.75;;;3.49;100.00
74103;BME280;62853;46.166;3.640;2024-01-16T01:13:22;100857.28;;;3.49;100.00
74103;BME280;62853;46.166;3.640;2024-01-16T01:15:47;100845.13;;;3.49;100.00
74103;BME280;62853;46.166;3.640;2024-01-16T01:18:13;100863.41;;;3.48;100.00
74103;BME280;62853;46.166;3.640;2024-01-16T01:20:38;100865.09;;;3.49;100.00
74103;BME280;62853;46.166;3.640;2024-01-16T01:23:04;100873.78;;;3.49;100.00
74103;BME280;62853;46.166;3.640;2024-01-16T01:25:29;100868.56;;;3.49;100.00
74103;BME280;62853;46.166;3.640;2024-01-16T01:27:54;100872.06;;;3.48;100.00
74103;BME280;62853;46.166;3.640;2024-01-16T01:30:20;100872.00;;;3.50;100.00
74103;BME280;62853;46.166;3.640;2024-01-16T01:32:45;100860.78;;;3.48;100.00
74103;BME280;62853;46.166;3.640;2024-01-16T01:35:10;100864.25;;;3.48;100.00
74103;BME280;62853;46.166;3.640;2024-01-16T01:37:37;100865.09;;;3.49;100.00
74103;BME280;62853;46.166;3.640;2024-01-16T01:40:02;100868.56;;;3.49;100.00
74103;BME280;62853;46.166;3.640;2024-01-16T01:42:28;100868.59;;;3.48;100.00
74103;BME280;62853;46.166;3.640;2024-01-16T01:44:53;100875.53;;;3.47;100.00
74103;BME280;62853;46.166;3.640;2024-01-16T01:47:19;100871.25;;;3.46;100.00
74103;BME280;62853;46.166;3.640;2024-01-16T01:49:45;100867.72;;;3.47;100.00
74103;BME280;62853;46.166;3.640;2024-01-16T01:52:10;100866.00;;;3.48;100.00
74103;BME280;62853;46.166;3.640;2024-01-16T01:54:38;100865.13;;;3.47;100.00
74103;BME280;62853;46.166;3.640;2024-01-16T01:57:04;100867.78;;;3.46;100.00
74103;BME280;62853;46.166;3.640;2024-01-16T01:59:29;100866.88;;;3.47;100.00
74103;BME280;62853;46.166;3.640;2024-01-16T02:01:56;100876.41;;;3.48;100.00
74103;BME280;62853;46.166;3.640;2024-01-16T02:04:22;100867.78;;;3.46;100.00
74103;BME280;62853;46.166;3.640;2024-01-16T02:06:48;100874.69;;;3.47;100.00
74103;BME280;62853;46.166;3.640;2024-01-16T02:09:13;100873.00;;;3.46;100.00
74103;BME280;62853;46.166;3.640;2024-01-16T02:11:39;100878.22;;;3.46;100.00
74103;BME280;62853;46.166;3.640;2024-01-16T02:14:05;100874.72;;;3.45;100.00
74103;BME280;62853;46.166;3.640;2024-01-16T02:16:36;100881.66;;;3.46;100.00
74103;BME280;62853;46.166;3.640;2024-01-16T02:19:03;100882.53;;;3.45;100.00
74103;BME280;62853;46.166;3.640;2024-01-16T02:21:41;100879.06;;;3.46;100.00
74103;BME280;62853;46.166;3.640;2024-01-16T02:24:10;100883.41;;;3.46;100.00
74103;BME280;62853;46.166;3.640;2024-01-16T02:26:37;100885.09;;;3.47;100.00
74103;BME280;62853;46.166;3.640;2024-01-16T02:29:02;100886.03;;;3.46;100.00
74103;BME280;62853;46.166;3.640;2024-01-16T02:31:33;100896.44;;;3.46;100.00
74103;BME280;62853;46.166;3.640;2024-01-16T02:33:59;100902.50;;;3.46;100.00
74103;BME280;62853;46.166;3.640;2024-01-16T02:36:25;100898.13;;;3.47;100.00
74103;BME280;62853;46.166;3.640;2024-01-16T02:38:51;100894.69;;;3.46;100.00
74103;BME280;62853;46.166;3.640;2024-01-16T02:41:16;100896.44;;;3.46;100.00
74103;BME280;62853;46.166;3.640;2024-01-16T02:43:42;100897.31;;;3.45;100.00
74103;BME280;62853;46.166;3.640;2024-01-16T02:46:08;100887.78;;;3.44;100.00
74103;BME280;62853;46.166;3.640;2024-01-16T02:48:37;100884.28;;;3.45;100.00
74103;BME280;62853;46.166;3.640;2024-01-16T02:51:03;100880.81;;;3.46;100.00
74103;BME280;62853;46.166;3.640;2024-01-16T02:53:32;100884.28;;;3.45;100.00
74103;BME280;62853;46.166;3.640;2024-01-16T02:55:57;100887.72;;;3.47;100.00
74103;BME280;62853;46.166;3.640;2024-01-16T02:58:29;100888.63;;;3.46;100.00
74103;BME280;62853;46.166;3.640;2024-01-16T03:00:56;100882.50;;;3.47;100.00
74103;BME280;62853;46.166;3.640;2024-01-16T03:03:22;100883.34;;;3.47;100.00
74103;BME280;62853;46.166;3.640;2024-01-16T03:05:48;100890.31;;;3.47;100.00
74103;BME280;62853;46.166;3.640;2024-01-16T03:08:13;100891.16;;;3.47;100.00
74103;BME280;62853;46.166;3.640;2024-01-16T03:10:38;100880.75;;;3.47;100.00
74103;BME280;62853;46.166;3.640;2024-01-16T03:13:04;100878.22;;;3.46;100.00
74103;BME280;62853;46.166;3.640;2024-01-16T03:15:29;100878.13;;;3.47;100.00
74103;BME280;62853;46.166;3.640;2024-01-16T03:17:56;100872.91;;;3.49;100.00
74103;BME280;62853;46.166;3.640;2024-01-16T03:20:22;100881.59;;;3.49;100.00
74103;BME280;62853;46.166;3.640;2024-01-16T03:22:48;100879.88;;;3.48;100.00
74103;BME280;62853;46.166;3.640;2024-01-16T03:25:14;100879.00;;;3.48;100.00
74103;BME280;62853;46.166;3.640;2024-01-16T03:27:39;100885.06;;;3.48;100.00
74103;BME280;62853;46.166;3.640;2024-01-16T03:30:05;100875.53;;;3.47;100.00
74103;BME280;62853;46.166;3.640;2024-01-16T03:32:31;100869.53;;;3.45;100.00
74103;BME280;62853;46.166;3.640;2024-01-16T03:34:57;100872.09;;;3.47;100.00
74103;BME280;62853;46.166;3.640;2024-01-16T03:37:22;100869.47;;;3.47;100.00
74103;BME280;62853;46.166;3.640;2024-01-16T03:39:48;100866.03;;;3.46;100.00
74103;BME280;62853;46.166;3.640;2024-01-16T03:42:15;100865.22;;;3.44;100.00
74103;BME280;62853;46.166;3.640;2024-01-16T03:44:40;100861.72;;;3.45;100.00
74103;BME280;62853;46.166;3.640;2024-01-16T03:47:06;100862.66;;;3.43;100.00
74103;BME280;62853;46.166;3.640;2024-01-16T03:49:32;100863.50;;;3.43;100.00
74103;BME280;62853;46.166;3.640;2024-01-16T03:51:58;100862.66;;;3.43;100.00
74103;BME280;62853;46.166;3.640;2024-01-16T03:54:23;100867.91;;;3.41;100.00
74103;BME280;62853;46.166;3.640;2024-01-16T03:56:48;100858.31;;;3.42;100.00
74103;BME280;62853;46.166;3.640;2024-01-16T03:59:14;100858.38;;;3.40;100.00
74103;BME280;62853;46.166;3.640;2024-01-16T04:01:39;100852.28;;;3.41;100.00
74103;BME280;62853;46.166;3.640;2024-01-16T04:04:06;100847.09;;;3.40;100.00
74103;BME280;62853;46.166;3.640;2024-01-16T04:06:32;100847.13;;;3.38;100.00
74103;BME280;62853;46.166;3.640;2024-01-16T04:08:58;100840.19;;;3.39;100.00
74103;BME280;62853;46.166;3.640;2024-01-16T04:11:23;100846.28;;;3.38;100.00
74103;BME280;62853;46.166;3.640;2024-01-16T04:13:48;100841.97;;;3.37;100.00
74103;BME280;62853;46.166;3.640;2024-01-16T04:16:15;100839.38;;;3.37;100.00
74103;BME280;62853;46.166;3.640;2024-01-16T04:18:42;100840.31;;;3.34;100.00
74103;BME280;62853;46.166;3.640;2024-01-16T04:21:08;100830.78;;;3.33;100.00
74103;BME280;62853;46.166;3.640;2024-01-16T04:23:33;100825.66;;;3.30;100.00
74103;BME280;62853;46.166;3.640;2024-01-16T04:25:58;100825.59;;;3.31;100.00
74103;BME280;62853;46.166;3.640;2024-01-16T04:28:24;100816.06;;;3.30;100.00
74103;BME280;62853;46.166;3.640;2024-01-16T04:30:50;100822.19;;;3.29;100.00
74103;BME280;62853;46.166;3.640;2024-01-16T04:33:15;100823.06;;;3.28;100.00
74103;BME280;62853;46.166;3.640;2024-01-16T04:35:41;100822.22;;;3.28;100.00
74103;BME280;62853;46.166;3.640;2024-01-16T04:38:06;100824.84;;;3.28;100.00
74103;BME280;62853;46.166;3.640;2024-01-16T04:40:32;100817.03;;;3.28;100.00
74103;BME280;62853;46.166;3.640;2024-01-16T04:42:58;100822.22;;;3.28;100.00
74103;BME280;62853;46.166;3.640;2024-01-16T04:45:23;100824.88;;;3.26;100.00
74103;BME280;62853;46.166;3.640;2024-01-16T04:47:48;100821.41;;;3.26;100.00
74103;BME280;62853;46.166;3.640;2024-01-16T04:50:14;100821.47;;;3.24;100.00
74103;BME280;62853;46.166;3.640;2024-01-16T04:52:39;100816.31;;;3.21;100.00
74103;BME280;62853;46.166;3.640;2024-01-16T04:55:05;100817.16;;;3.22;100.00
74103;BME280;62853;46.166;3.640;2024-01-16T04:57:31;100825.88;;;3.21;100.00
74103;BME280;62853;46.166;3.640;2024-01-16T04:59:56;100821.56;;;3.20;100.00
74103;BME280;62853;46.166;3.640;2024-01-16T05:02:21;100825.00;;;3.20;100.00
74103;BME280;62853;46.166;3.640;2024-01-16T05:04:47;100820.72;;;3.19;100.00
74103;BME280;62853;46.166;3.640;2024-01-16T05:07:15;100818.16;;;3.17;100.00
74103;BME280;62853;46.166;3.640;2024-01-16T05:09:40;100819.88;;;3.17;100.00
74103;BME280;62853;46.166;3.640;2024-01-16T05:12:06;100817.28;;;3.17;100.00
74103;BME280;62853;46.166;3.640;2024-01-16T05:14:31;100805.22;;;3.14;100.00
74103;BME280;62853;46.166;3.640;2024-01-16T05:16:57;100807.84;;;3.13;100.00
74103;BME280;62853;46.166;3.640;2024-01-16T05:19:22;100807.00;;;3.12;100.00
74103;BME280;62853;46.166;3.640;2024-01-16T05:21:47;100809.56;;;3.14;100.00
74103;BME280;62853;46.166;3.640;2024-01-16T05:24:13;100807.84;;;3.13;100.00
74103;BME280;62853;46.166;3.640;2024-01-16T05:26:38;100816.53;;;3.12;100.00
74103;BME280;62853;46.166;3.640;2024-01-16T05:29:03;100801.88;;;3.09;100.00
74103;BME280;62853;46.166;3.640;2024-01-16T05:31:29;100812.28;;;3.09;100.00
74103;BME280;62853;46.166;3.640;2024-01-16T05:33:54;100814.91;;;3.08;100.00
74103;BME280;62853;46.166;3.640;2024-01-16T05:36:19;100811.50;;;3.06;100.00
74103;BME280;62853;46.166;3.640;2024-01-16T05:38:45;100815.00;;;3.03;100.00
74103;BME280;62853;46.166;3.640;2024-01-16T05:41:11;100808.09;;;3.04;100.00
74103;BME280;62853;46.166;3.640;2024-01-16T05:43:36;100806.41;;;3.01;100.00
74103;BME280;62853;46.166;3.640;2024-01-16T05:46:02;100810.78;;;2.99;100.00
74103;BME280;62853;46.166;3.640;2024-01-16T05:48:27;100809.97;;;2.97;100.00
74103;BME280;62853;46.166;3.640;2024-01-16T05:50:53;100814.34;;;2.95;100.00
74103;BME280;62853;46.166;3.640;2024-01-16T05:53:18;100808.31;;;2.93;100.00
74103;BME280;62853;46.166;3.640;2024-01-16T05:55:44;100808.28;;;2.94;100.00
74103;BME280;62853;46.166;3.640;2024-01-16T05:58:09;100805.72;;;2.93;100.00
74103;BME280;62853;46.166;3.640;2024-01-16T06:00:34;100804.03;;;2.92;100.00
74103;BME280;62853;46.166;3.640;2024-01-16T06:03:00;100804.88;;;2.92;100.00
74103;BME280;62853;46.166;3.640;2024-01-16T06:05:25;100796.25;;;2.90;100.00
74103;BME280;62853;46.166;3.640;2024-01-16T06:07:51;100806.66;;;2.90;100.00
74103;BME280;62853;46.166;3.640;2024-01-16T06:10:16;100800.69;;;2.87;100.00
74103;BME280;62853;46.166;3.640;2024-01-16T06:12:42;100799.84;;;2.85;100.00
74103;BME280;62853;46.166;3.640;2024-01-16T06:15:07;100804.19;;;2.84;100.00
74103;BME280;62853;46.166;3.640;2024-01-16T06:17:33;100802.47;;;2.83;100.00
74103;BME280;62853;46.166;3.640;2024-01-16T06:19:58;100800.78;;;2.82;100.00
74103;BME280;62853;46.166;3.640;2024-01-16T06:22:24;100797.38;;;2.80;100.00
74103;BME280;62853;46.166;3.640;2024-01-16T06:24:49;100796.50;;;2.79;100.00
74103;BME280;62853;46.166;3.640;2024-01-16T06:27:15;100793.03;;;2.79;100.00
74103;BME280;62853;46.166;3.640;2024-01-16T06:29:48;100791.31;;;2.78;100.00
74103;BME280;62853;46.166;3.640;2024-01-16T06:32:13;100793.06;;;2.77;100.00
74103;BME280;62853;46.166;3.640;2024-01-16T06:34:39;100799.16;;;2.76;100.00
74103;BME280;62853;46.166;3.640;2024-01-16T06:37:04;100795.69;;;2.77;100.00
74103;BME280;62853;46.166;3.640;2024-01-16T06:39:30;100797.47;;;2.75;100.00
74103;BME280;62853;46.166;3.640;2024-01-16T06:41:56;100800.91;;;2.76;100.00
74103;BME280;62853;46.166;3.640;2024-01-16T06:44:21;100800.06;;;2.75;100.00
74103;BME280;62853;46.166;3.640;2024-01-16T06:46:47;100794.03;;;2.75;100.00
74103;BME280;62853;46.166;3.640;2024-01-16T06:49:12;100794.09;;;2.72;100.00
74103;BME280;62853;46.166;3.640;2024-01-16T06:51:37;100789.75;;;2.71;100.00
74103;BME280;62853;46.166;3.640;2024-01-16T06:54:03;100798.41;;;2.71;100.00
74103;BME280;62853;46.166;3.640;2024-01-16T06:56:29;100805.38;;;2.71;100.00
74103;BME280;62853;46.166;3.640;2024-01-16T06:58:54;100809.72;;;2.70;100.00
74103;BME280;62853;46.166;3.640;2024-01-16T07:01:20;100811.50;;;2.68;100.00
74103;BME280;62853;46.166;3.640;2024-01-16T07:03:45;100822.75;;;2.69;100.00
74103;BME280;62853;46.166;3.640;2024-01-16T07:06:11;100815.00;;;2.67;100.00
74103;BME280;62853;46.166;3.640;2024-01-16T07:08:37;100812.41;;;2.66;100.00
74103;BME280;62853;46.166;3.640;2024-01-16T07:11:02;100821.09;;;2.65;100.00
74103;BME280;62853;46.166;3.640;2024-01-16T07:13:27;100828.06;;;2.64;100.00
74103;BME280;62853;46.166;3.640;2024-01-16T07:15:53;100821.97;;;2.65;100.00
74103;BME280;62853;46.166;3.640;2024-01-16T07:18:18;100818.50;;;2.65;100.00
74103;BME280;62853;46.166;3.640;2024-01-16T07:20:44;100819.38;;;2.65;100.00
74103;BME280;62853;46.166;3.640;2024-01-16T07:23:11;100818.50;;;2.65;100.00
74103;BME280;62853;46.166;3.640;2024-01-16T07:25:36;100834.06;;;2.66;100.00
74103;BME280;62853;46.166;3.640;2024-01-16T07:28:01;100828.03;;;2.66;100.00
74103;BME280;62853;46.166;3.640;2024-01-16T07:30:27;100829.81;;;2.64;100.00
74103;BME280;62853;46.166;3.640;2024-01-16T07:32:53;100828.09;;;2.63;100.00
74103;BME280;62853;46.166;3.640;2024-01-16T07:35:19;100827.25;;;2.62;100.00
74103;BME280;62853;46.166;3.640;2024-01-16T07:37:44;100830.69;;;2.63;100.00
74103;BME280;62853;46.166;3.640;2024-01-16T07:40:10;100823.78;;;2.62;100.00
74103;BME280;62853;46.166;3.640;2024-01-16T07:42:37;100824.66;;;2.60;100.00
74103;BME280;62853;46.166;3.640;2024-01-16T07:45:06;100827.25;;;2.62;100.00
74103;BME280;62853;46.166;3.640;2024-01-16T07:47:32;100830.69;;;2.63;100.00
74103;BME280;62853;46.166;3.640;2024-01-16T07:49:58;100824.63;;;2.62;100.00
74103;BME280;62853;46.166;3.640;2024-01-16T07:52:23;100837.66;;;2.60;100.00
74103;BME280;62853;46.166;3.640;2024-01-16T07:54:49;100842.84;;;2.62;100.00
74103;BME280;62853;46.166;3.640;2024-01-16T07:57:14;100841.91;;;2.65;100.00
74103;BME280;62853;46.166;3.640;2024-01-16T07:59:39;100844.56;;;2.63;100.00
74103;BME280;62853;46.166;3.640;2024-01-16T08:02:06;100843.69;;;2.63;100.00
74103;BME280;62853;46.166;3.640;2024-01-16T08:04:32;100855.81;;;2.64;100.00
74103;BME280;62853;46.166;3.640;2024-01-16T08:06:57;100851.47;;;2.64;100.00
74103;BME280;62853;46.166;3.640;2024-01-16T08:09:23;100856.66;;;2.64;100.00
74103;BME280;62853;46.166;3.640;2024-01-16T08:11:48;100852.28;;;2.66;100.00
74103;BME280;62853;46.166;3.640;2024-01-16T08:14:14;100852.28;;;2.66;100.00
74103;BME280;62853;46.166;3.640;2024-01-16T08:16:39;100844.44;;;2.68;100.00
74103;BME280;62853;46.166;3.640;2024-01-16T08:19:04;100843.56;;;2.69;100.00
74103;BME280;62853;46.166;3.640;2024-01-16T08:21:30;100835.75;;;2.69;100.00
74103;BME280;62853;46.166;3.640;2024-01-16T08:23:55;100841.81;;;2.69;100.00
74103;BME280;62853;46.166;3.640;2024-01-16T08:26:20;100853.97;;;2.69;100.00
74103;BME280;62853;46.166;3.640;2024-01-16T08:28:46;100852.19;;;2.71;100.00
74103;BME280;62853;46.166;3.640;2024-01-16T08:31:11;100866.88;;;2.73;100.00
74103;BME280;62853;46.166;3.640;2024-01-16T08:33:37;100860.75;;;2.74;100.00
74103;BME280;62853;46.166;3.640;2024-01-16T08:36:03;100868.50;;;2.77;100.00
74103;BME280;62853;46.166;3.640;2024-01-16T08:38:29;100866.72;;;2.79;100.00
74103;BME280;62853;46.166;3.640;2024-01-16T08:40:55;100870.13;;;2.82;100.00
74103;BME280;62853;46.166;3.640;2024-01-16T08:43:20;100871.84;;;2.83;100.00
74103;BME280;62853;46.166;3.640;2024-01-16T08:45:45;100873.59;;;2.84;100.00
74103;BME280;62853;46.166;3.640;2024-01-16T08:48:13;100864.03;;;2.84;100.00
74103;BME280;62853;46.166;3.640;2024-01-16T08:50:40;100864.84;;;2.86;100.00
74103;BME280;62853;46.166;3.640;2024-01-16T08:53:05;100869.97;;;2.89;100.00
74103;BME280;62853;46.166;3.640;2024-01-16T08:55:31;100857.81;;;2.90;100.00
74103;BME280;62853;46.166;3.640;2024-01-16T08:57:57;100857.81;;;2.90;100.00
74103;BME280;62853;46.166;3.640;2024-01-16T09:00:22;100856.09;;;2.90;100.00
74103;BME280;62853;46.166;3.640;2024-01-16T09:02:48;100854.28;;;2.94;100.00
74103;BME280;62853;46.166;3.640;2024-01-16T09:05:14;100849.03;;;2.95;100.00
74103;BME280;62853;46.166;3.640;2024-01-16T09:07:40;100841.25;;;2.94;100.00
74103;BME280;62853;46.166;3.640;2024-01-16T09:10:06;100850.75;;;2.95;100.00
74103;BME280;62853;46.166;3.640;2024-01-16T09:12:32;100852.47;;;2.96;100.00
74103;BME280;62853;46.166;3.640;2024-01-16T09:14:58;100872.41;;;2.97;100.00
74103;BME280;62853;46.166;3.640;2024-01-16T09:17:24;100860.25;;;2.97;100.00
74103;BME280;62853;46.166;3.640;2024-01-16T09:19:50;100865.47;;;2.97;100.00
74103;BME280;62853;46.166;3.640;2024-01-16T09:22:17;100860.22;;;2.99;100.00
74103;BME280;62853;46.166;3.640;2024-01-16T09:24:43;100853.25;;;3.00;100.00
74103;BME280;62853;46.166;3.640;2024-01-16T09:27:08;100854.09;;;3.00;100.00
74103;BME280;62853;46.166;3.640;2024-01-16T09:29:37;100845.44;;;3.01;100.00
74103;BME280;62853;46.166;3.640;2024-01-16T09:32:03;100848.00;;;3.03;100.00
74103;BME280;62853;46.166;3.640;2024-01-16T09:34:29;100845.34;;;3.04;100.00
74103;BME280;62853;46.166;3.640;2024-01-16T09:36:55;100844.41;;;3.07;100.00
74103;BME280;62853;46.166;3.640;2024-01-16T09:39:24;100843.50;;;3.09;100.00
74103;BME280;62853;46.166;3.640;2024-01-16T09:41:49;100841.69;;;3.13;100.00
74103;BME280;62853;46.166;3.640;2024-01-16T09:44:14;100835.56;;;3.15;100.00
74103;BME280;62853;46.166;3.640;2024-01-16T09:46:43;100839.84;;;3.16;100.00
74103;BME280;62853;46.166;3.640;2024-01-16T09:49:12;100831.97;;;3.20;100.00
74103;BME280;62853;46.166;3.640;2024-01-16T09:51:37;100836.25;;;3.22;100.00
74103;BME280;62853;46.166;3.640;2024-01-16T09:54:04;100837.03;;;3.26;100.00
74103;BME280;62853;46.166;3.640;2024-01-16T09:56:35;100842.09;;;3.30;100.00
74103;BME280;62853;46.166;3.640;2024-01-16T09:59:05;100829.75;;;3.39;100.00
74103;BME280;62853;46.166;3.640;2024-01-16T10:01:33;100823.47;;;3.47;100.00
74103;BME280;62853;46.166;3.640;2024-01-16T10:03:58;100824.09;;;3.57;100.00
74103;BME280;62853;46.166;3.640;2024-01-16T10:06:27;100821.97;;;3.71;100.00
74103;BME280;62853;46.166;3.640;2024-01-16T10:08:52;100820.88;;;3.80;100.00
74103;BME280;62853;46.166;3.640;2024-01-16T10:11:18;100819.91;;;3.83;100.00
74103;BME280;62853;46.166;3.640;2024-01-16T10:13:44;100814.59;;;3.87;100.00
74103;BME280;62853;46.166;3.640;2024-01-16T10:16:10;100814.47;;;3.92;100.00
74103;BME280;62853;46.166;3.640;2024-01-16T10:18:35;100814.09;;;4.06;100.00
74103;BME280;62853;46.166;3.640;2024-01-16T10:21:03;100813.59;;;4.23;100.00
74103;BME280;62853;46.166;3.640;2024-01-16T10:23:30;100821.34;;;4.26;100.00
74103;BME280;62853;46.166;3.640;2024-01-16T10:26:08;100815.38;;;4.22;100.00
74103;BME280;62853;46.166;3.640;2024-01-16T10:28:39;100810.34;;;4.15;100.00
74103;BME280;62853;46.166;3.640;2024-01-16T10:31:06;100805.31;;;4.10;100.00
74103;BME280;62853;46.166;3.640;2024-01-16T10:33:31;100799.31;;;4.06;100.00
74103;BME280;62853;46.166;3.640;2024-01-16T10:38:36;100801.13;;;4.03;100.00
74103;BME280;62853;46.166;3.640;2024-01-16T10:43:31;100786.06;;;4.14;100.00
74103;BME280;62853;46.166;3.640;2024-01-16T10:48:39;100788.06;;;4.34;100.00
74103;BME280;62853;46.166;3.640;2024-01-16T10:51:09;100791.31;;;4.42;100.00
74103;BME280;62853;46.166;3.640;2024-01-16T10:53:37;100796.28;;;4.50;100.00
74103;BME280;62853;46.166;3.640;2024-01-16T10:56:09;100795.13;;;4.60;100.00
74103;BME280;62853;46.166;3.640;2024-01-16T10:58:36;100787.00;;;4.70;100.00
74103;BME280;62853;46.166;3.640;2024-01-16T11:01:05;100779.03;;;4.74;100.00
74103;BME280;62853;46.166;3.640;2024-01-16T11:03:46;100783.16;;;4.81;100.00
74103;BME280;62853;46.166;3.640;2024-01-16T11:06:14;100780.31;;;4.89;100.00
74103;BME280;62853;46.166;3.640;2024-01-16T11:08:41;100778.28;;;4.97;100.00
74103;BME280;62853;46.166;3.640;2024-01-16T11:11:07;100785.81;;;5.07;100.00
74103;BME280;62853;46.166;3.640;2024-01-16T11:13:34;100785.56;;;5.14;100.00
74103;BME280;62853;46.166;3.640;2024-01-16T11:16:01;100773.09;;;5.22;100.00
74103;BME280;62853;46.166;3.640;2024-01-16T11:18:29;100758.91;;;5.31;100.00
74103;BME280;62853;46.166;3.640;2024-01-16T11:20:55;100769.03;;;5.40;100.00
74103;BME280;62853;46.166;3.640;2024-01-16T11:23:21;100760.94;;;5.48;100.00
74103;BME280;62853;46.166;3.640;2024-01-16T11:25:47;100765.88;;;5.56;100.00
74103;BME280;62853;46.166;3.640;2024-01-16T11:28:13;100765.56;;;5.65;100.00
74103;BME280;62853;46.166;3.640;2024-01-16T11:30:40;100766.88;;;5.77;100.00
74103;BME280;62853;46.166;3.640;2024-01-16T11:33:06;100763.03;;;5.87;100.00
74103;BME280;62853;46.166;3.640;2024-01-16T11:35:36;100769.66;;;5.98;100.00
74103;BME280;62853;46.166;3.640;2024-01-16T11:38:10;100773.50;;;6.11;100.00
74103;BME280;62853;46.166;3.640;2024-01-16T11:40:39;100762.69;;;6.20;100.00
74103;BME280;62853;46.166;3.640;2024-01-16T11:45:57;100761.16;;;6.38;100.00
74103;BME280;62853;46.166;3.640;2024-01-16T11:48:24;100760.00;;;6.45;100.00
74103;BME280;62853;46.166;3.640;2024-01-16T11:50:50;100749.41;;;6.48;100.00
74103;BME280;62853;46.166;3.640;2024-01-16T11:53:35;100751.78;;;6.55;100.00
74103;BME280;62853;46.166;3.640;2024-01-16T12:01:17;100734.25;;;6.57;100.00
74103;BME280;62853;46.166;3.640;2024-01-16T12:03:45;100736.88;;;6.57;100.00
74103;BME280;62853;46.166;3.640;2024-01-16T12:06:10;100736.09;;;6.55;100.00
74103;BME280;62853;46.166;3.640;2024-01-16T12:08:36;100730.91;;;6.53;100.00
74103;BME280;62853;46.166;3.640;2024-01-16T12:11:04;100727.53;;;6.51;100.00
74103;BME280;62853;46.166;3.640;2024-01-16T12:13:29;100732.75;;;6.51;100.00
74103;BME280;62853;46.166;3.640;2024-01-16T12:16:02;100728.38;;;6.51;100.00
74103;BME280;62853;46.166;3.640;2024-01-16T12:18:29;100720.56;;;6.50;100.00
74103;BME280;62853;46.166;3.640;2024-01-16T12:20:55;100713.44;;;6.54;100.00
74103;BME280;62853;46.166;3.640;2024-01-16T12:23:20;100708.88;;;6.59;100.00
74103;BME280;62853;46.166;3.640;2024-01-16T12:25:47;100710.28;;;6.67;100.00
74103;BME280;62853;46.166;3.640;2024-01-16T12:28:20;100704.84;;;6.72;100.00
74103;BME280;62853;46.166;3.640;2024-01-16T12:30:49;100701.13;;;6.78;100.00
74103;BME280;62853;46.166;3.640;2024-01-16T12:33:16;100701.66;;;6.86;100.00
74103;BME280;62853;46.166;3.640;2024-01-16T12:35:44;100699.63;;;6.93;100.00
74103;BME280;62853;46.166;3.640;2024-01-16T12:38:11;100698.66;;;6.95;100.00
74103;BME280;62853;46.166;3.640;2024-01-16T12:40:43;100699.38;;;6.99;100.00
74103;BME280;62853;46.166;3.640;2024-01-16T12:43:10;100694.81;;;7.04;100.00
74103;BME280;62853;46.166;3.640;2024-01-16T12:45:35;100691.28;;;7.05;100.00
74103;BME280;62853;46.166;3.640;2024-01-16T12:48:01;100699.84;;;7.08;100.00
74103;BME280;62853;46.166;3.640;2024-01-16T12:50:29;100704.88;;;7.13;100.00
74103;BME280;62853;46.166;3.640;2024-01-16T12:53:09;100698.53;;;7.19;100.00
74103;BME280;62853;46.166;3.640;2024-01-16T12:55:39;100696.44;;;7.27;100.00
74103;BME280;62853;46.166;3.640;2024-01-16T12:58:20;100696.09;;;7.35;100.00
74103;BME280;62853;46.166;3.640;2024-01-16T13:00:50;100693.09;;;7.44;100.00